Time;durP1;ratioP1;P1;durP2;ratioP2;P2;SDS_P1;SDS_P2;PMS_P1;PMS_P2;Temp;Humidity;BMP_temperature;BMP_pressure;BME280_temperature;BME280_humidity;BME280_pressure;Samples;Min_cycle;Max_cycle;Signal;HPM_P1;HPM_P2
2022/05/15 06:54:37;;;;;;;6.68;3.08;;;;;;;17.39;53.27;100812.63;4881586;29;20084;-86
2022/05/15 06:57:43;;;;;;;4.03;2.35;;;;;;;17.32;53.99;100836.69;4874073;29;20052;-84
2022/05/15 07:16:58;;;;;;;8.32;2.70;;;;;;;17.80;53.87;100865.72;4849989;29;21085;-82
2022/05/15 07:19:49;;;;;;;4.68;2.95;;;;;;;17.54;54.90;100832.69;4848682;29;20068;-83
2022/05/15 07:25:53;;;;;;;5.90;2.63;;;;;;;17.76;54.34;100883.50;4868889;29;20155;-82
2022/05/15 07:28:24;;;;;;;22.40;4.22;;;;;;;17.82;53.95;100846.22;4872917;29;20053;-81
2022/05/15 07:31:10;;;;;;;;;;;;;;;;;;;;;
2022/05/15 07:33:53;;;;;;;4.88;2.72;;;;;;;17.94;53.35;100887.56;4888751;29;20041;-82
2022/05/15 07:39:42;;;;;;;6.20;3.05;;;;;;;17.88;52.72;100846.06;4876541;29;20633;-83
2022/05/15 07:53:08;;;;;;;7.35;2.90;;;;;;;18.38;51.15;100845.78;4814044;29;20059;-82
2022/05/15 07:55:37;;;;;;;16.15;3.25;;;;;;;18.64;50.27;100862.84;4869688;29;20092;-81
2022/05/15 08:01:38;;;;;;;4.90;2.67;;;;;;;18.29;49.10;100836.25;4780053;29;20053;-81
2022/05/15 08:04:04;;;;;;;13.63;3.70;;;;;;;18.63;49.38;100837.16;4773405;29;20058;-79
2022/05/15 08:09:16;;;;;;;4.35;2.28;;;;;;;18.60;49.32;100842.56;4882753;29;20638;-79
2022/05/15 08:11:42;;;;;;;6.78;3.08;;;;;;;19.12;49.03;100844.69;4881173;29;20049;-80
2022/05/15 08:14:12;;;;;;;5.32;2.90;;;;;;;19.55;50.34;100863.84;4880389;29;20088;-80
2022/05/15 08:16:41;;;;;;;3.97;2.42;;;;;;;19.14;46.99;100847.31;4873799;29;20064;-81
2022/05/15 08:24:41;;;;;;;4.60;2.10;;;;;;;19.49;46.30;100843.63;4879116;29;20530;-79
2022/05/15 08:27:28;;;;;;;3.28;1.55;;;;;;;19.81;46.33;100887.94;4880375;29;20036;-81
2022/05/15 08:29:54;;;;;;;6.35;2.92;;;;;;;20.03;46.77;100866.81;4880205;29;20057;-79
2022/05/15 08:32:22;;;;;;;5.60;2.97;;;;;;;19.89;45.90;100844.22;4881252;29;20090;-80
2022/05/15 08:34:48;;;;;;;6.43;2.90;;;;;;;20.27;47.59;100863.41;4879023;29;20116;-81
2022/05/15 08:37:16;;;;;;;3.95;2.45;;;;;;;20.44;46.78;100875.28;4875888;29;20049;-81
2022/05/15 08:39:42;;;;;;;3.97;2.03;;;;;;;20.50;45.46;100862.66;4866804;29;20111;-81
2022/05/15 08:42:50;;;;;;;8.02;2.15;;;;;;;20.42;47.85;100822.94;4883317;29;20060;-81
2022/05/15 08:45:22;;;;;;;5.05;2.78;;;;;;;20.72;47.97;100861.03;4875129;29;20786;-82
2022/05/15 08:48:12;;;;;;;12.10;2.85;;;;;;;20.81;45.38;100875.81;4886519;29;20029;-80
2022/05/15 08:50:49;;;;;;;7.38;3.72;;;;;;;20.56;47.29;100830.50;4878836;29;20063;-80
2022/05/15 08:53:23;;;;;;;5.70;2.30;;;;;;;20.80;46.08;100829.63;4878861;29;20052;-80
2022/05/15 08:55:57;;;;;;;4.13;2.50;;;;;;;21.16;46.61;100855.00;4881137;29;20688;-81
2022/05/15 08:58:39;;;;;;;9.60;3.53;;;;;;;21.19;46.04;100841.53;4884380;29;20052;-82
2022/05/15 09:01:07;;;;;;;7.75;2.85;;;;;;;21.55;47.08;100835.78;4891583;29;20156;-82
2022/05/15 09:03:38;;;;;;;7.88;2.45;;;;;;;21.55;44.15;100842.00;4878452;29;20047;-83
2022/05/15 09:06:41;;;;;;;4.65;2.38;;;;;;;21.77;44.95;100841.16;4895500;29;20047;-81
2022/05/15 09:09:37;;;;;;;7.70;2.42;;;;;;;21.44;44.75;100821.03;4883468;29;20052;-81
2022/05/15 09:12:26;;;;;;;6.78;2.88;;;;;;;21.85;44.45;100839.91;4882021;29;20050;-82
2022/05/15 09:15:00;;;;;;;2.25;1.48;;;;;;;21.29;44.60;100826.94;4875236;29;20056;-76
2022/05/15 09:24:56;;;;;;;;;;;;;;;;;;;;;
2022/05/15 09:27:32;;;;;;;6.85;3.28;;;;;;;21.80;49.09;100839.25;4883974;29;20370;-85
2022/05/15 09:30:12;;;;;;;6.60;3.38;;;;;;;21.52;46.59;100847.47;4889149;29;20079;-85
2022/05/15 09:32:43;;;;;;;10.82;4.57;;;;;;;21.97;48.23;100813.63;4877398;29;20055;-82
2022/05/15 09:35:30;;;;;;;7.40;3.42;;;;;;;22.27;45.70;100824.91;4879854;29;20798;-84
2022/05/15 09:43:30;;;;;;;9.57;3.55;;;;;;;22.92;44.16;100793.50;4884677;29;20274;-86
2022/05/15 09:43:35;;;;;;;9.82;4.50;;;;;;;22.97;43.88;100818.28;4888869;29;20128;-82
2022/05/15 09:46:15;;;;;;;13.13;3.72;;;;;;;23.39;45.44;100793.19;4884336;29;20048;-82
2022/05/15 09:48:58;;;;;;;14.07;5.05;;;;;;;22.10;44.89;100798.81;4881987;29;20255;-84
2022/05/15 09:51:32;;;;;;;5.95;3.05;;;;;;;21.98;45.31;100810.03;4881280;29;20128;-83
2022/05/15 09:53:59;;;;;;;12.38;4.28;;;;;;;21.66;45.36;100830.91;4879533;29;20033;-84
2022/05/15 09:56:32;;;;;;;6.00;3.60;;;;;;;22.27;46.62;100811.53;4897550;29;20100;-84
2022/05/15 09:59:20;;;;;;;;;;;;;;;22.54;45.68;100798.75;4887121;29;20091;-88
2022/05/15 10:01:58;;;;;;;7.75;3.75;;;;;;;22.93;44.81;100805.97;4838055;29;20385;-86
2022/05/15 10:04:27;;;;;;;6.53;1.92;;;;;;;22.16;43.84;100800.38;4856952;29;20413;-84
2022/05/15 10:06:57;;;;;;;9.55;2.42;;;;;;;21.73;44.76;100797.69;4874127;29;20140;-83
2022/05/15 10:09:30;;;;;;;6.43;3.50;;;;;;;21.93;44.93;100794.19;4898751;29;20065;-81
2022/05/15 10:12:06;;;;;;;7.65;3.92;;;;;;;22.35;46.28;100809.38;4882350;29;20049;-82
2022/05/15 10:14:46;;;;;;;7.97;2.83;;;;;;;21.98;45.11;100786.84;4883974;29;20056;-80
2022/05/15 10:17:14;;;;;;;6.85;3.78;;;;;;;21.69;45.99;100845.00;4879813;29;20064;-83
2022/05/15 10:20:02;;;;;;;7.35;3.80;;;;;;;22.07;45.26;100790.94;4875699;29;20580;-82
2022/05/15 10:22:48;;;;;;;6.28;3.63;;;;;;;22.48;46.21;100839.16;4877279;29;20132;-83
2022/05/15 10:25:24;;;;;;;5.32;3.17;;;;;;;21.83;46.14;100787.47;4879956;29;20060;-82
2022/05/15 10:28:20;;;;;;;6.25;3.53;;;;;;;22.01;46.35;100794.75;4872657;29;20615;-88
2022/05/15 10:31:01;;;;;;;18.05;3.97;;;;;;;22.54;45.78;100826.38;4875268;29;20061;-83
2022/05/15 10:33:32;;;;;;;8.57;4.18;;;;;;;22.48;45.81;100834.69;4870229;29;20031;-84
2022/05/15 10:36:23;;;;;;;10.35;4.15;;;;;;;22.38;46.02;100808.38;4869624;29;20028;-78
2022/05/15 10:39:15;;;;;;;11.00;3.63;;;;;;;21.76;45.75;100777.97;4885642;29;20060;-83
2022/05/15 10:42:18;;;;;;;7.25;5.07;;;;;;;22.22;45.99;100786.78;4862700;29;20049;-81
2022/05/15 10:45:08;;;;;;;6.30;4.10;;;;;;;22.17;44.83;100791.41;4896226;29;20516;-82
2022/05/15 10:48:20;;;;;;;8.10;3.95;;;;;;;22.32;45.31;100785.47;4878261;29;20132;-87
2022/05/15 10:50:59;;;;;;;6.25;3.92;;;;;;;22.74;46.87;100825.53;4877560;29;20064;-81
2022/05/15 10:57:31;;;;;;;6.40;3.92;;;;;;;22.58;47.02;100778.13;4874793;29;20181;-79
2022/05/15 11:00:06;;;;;;;7.78;4.47;;;;;;;22.83;45.75;100791.25;4884861;29;20486;-87
2022/05/15 11:02:47;;;;;;;5.97;4.32;;;;;;;22.76;45.73;100767.47;4889877;29;20060;-85
2022/05/15 11:05:23;;;;;;;9.88;5.80;;;;;;;22.59;48.30;100772.69;4883757;29;20052;-86
2022/05/15 11:08:26;;;;;;;5.63;3.42;;;;;;;22.49;46.09;100779.38;4879862;29;20519;-83
2022/05/15 11:11:03;;;;;;;7.25;4.15;;;;;;;22.41;45.13;100774.38;4878692;29;20049;-81
2022/05/15 11:13:56;;;;;;;6.30;3.58;;;;;;;21.66;46.23;100774.81;4892199;29;20143;-85
2022/05/15 11:16:41;;;;;;;;;;;;;;;22.19;47.02;100768.16;4883370;29;20080;-82
2022/05/15 11:19:31;;;;;;;12.13;4.93;;;;;;;22.63;47.48;100801.03;4890172;29;19923;-82
2022/05/15 11:22:11;;;;;;;11.70;7.28;;;;;;;22.59;44.28;100755.75;4879093;29;20577;-81
2022/05/15 11:25:01;;;;;;;9.38;6.05;;;;;;;22.62;47.00;100751.16;4885161;29;20068;-77
2022/05/15 13:37:40;;;;;;;7.25;3.88;;;;;;;23.36;40.13;100638.81;5623177;23;20053;-74
2022/05/15 13:45:55;;;;;;;12.40;6.07;;;;;;;24.33;39.07;100666.06;4902073;29;20142;-74
2022/05/15 13:48:21;;;;;;;7.25;3.30;;;;;;;23.85;40.02;100627.47;4901255;29;20088;-74
2022/05/15 13:50:52;;;;;;;13.98;4.53;;;;;;;24.08;38.36;100649.56;4890055;29;20037;-73
2022/05/15 13:53:26;;;;;;;5.35;3.40;;;;;;;23.84;38.47;100623.06;4882893;29;20648;-73
2022/05/15 13:55:57;;;;;;;10.88;5.88;;;;;;;24.35;38.30;100612.31;4887482;29;20138;-74
2022/05/15 13:58:46;;;;;;;5.63;3.95;;;;;;;24.30;38.73;100623.31;4883703;29;20092;-75
2022/05/15 14:01:29;;;;;;;6.70;3.90;;;;;;;24.26;40.51;100620.91;4884812;29;22299;-74
2022/05/15 14:04:28;;;;;;;29.65;26.00;;;;;;;24.21;39.02;100613.97;4888895;29;20049;-75
2022/05/15 14:06:57;;;;;;;10.27;5.18;;;;;;;24.59;38.66;100655.78;4886191;29;20064;-74
2022/05/15 14:09:41;;;;;;;5.72;2.85;;;;;;;23.96;38.21;100611.72;4900517;29;20038;-75
2022/05/15 14:12:11;;;;;;;6.15;3.63;;;;;;;24.38;39.03;100615.72;4888136;29;20036;-74
2022/05/15 14:14:56;;;;;;;10.43;4.63;;;;;;;24.38;40.10;100647.06;4886740;29;20060;-75
2022/05/15 14:17:28;;;;;;;6.68;3.65;;;;;;;24.37;39.34;100619.38;4883736;29;20065;-75
2022/05/15 14:20:07;;;;;;;5.47;3.40;;;;;;;24.57;38.59;100661.22;4882516;29;20085;-75
2022/05/15 14:22:38;;;;;;;8.02;4.18;;;;;;;24.13;39.73;100613.50;4882530;29;20060;-75
2022/05/15 14:25:12;;;;;;;5.38;3.97;;;;;;;24.27;39.04;100619.94;4886117;29;20052;-75
2022/05/15 14:27:40;;;;;;;5.30;3.10;;;;;;;24.30;39.40;100623.31;4899027;29;20104;-75
2022/05/15 14:30:07;;;;;;;6.38;3.70;;;;;;;24.37;39.01;100621.16;4881863;29;20041;-75
2022/05/15 14:32:34;;;;;;;8.50;4.55;;;;;;;24.43;38.72;100612.78;4879365;29;20044;-74
2022/05/15 14:35:10;;;;;;;6.53;3.72;;;;;;;24.09;38.44;100608.38;4883675;29;20059;-74
2022/05/15 14:37:36;;;;;;;8.05;3.63;;;;;;;24.51;38.62;100647.28;4882149;29;21635;-75
2022/05/15 14:40:02;;;;;;;7.72;4.35;;;;;;;24.30;38.40;100630.50;4863682;29;20372;-75
2022/05/15 14:42:31;;;;;;;7.28;4.63;;;;;;;24.22;38.36;100609.47;4878571;29;20452;-74
2022/05/15 14:45:00;;;;;;;10.85;4.13;;;;;;;24.30;38.30;100615.25;4898640;29;20043;-75
2022/05/15 14:47:30;;;;;;;8.60;3.70;;;;;;;24.19;38.12;100621.22;4870395;29;20052;-75
2022/05/15 14:49:57;;;;;;;14.65;4.05;;;;;;;24.23;38.56;100611.19;4883390;29;20060;-74
2022/05/15 14:52:29;;;;;;;7.18;3.90;;;;;;;24.28;37.95;100616.28;4882564;29;20053;-75
2022/05/15 14:55:02;;;;;;;4.90;3.20;;;;;;;24.22;38.30;100620.19;4894852;29;20819;-74
2022/05/15 14:57:29;;;;;;;6.07;3.47;;;;;;;24.11;37.90;100614.53;4884600;29;20469;-74
2022/05/15 15:00:00;;;;;;;8.35;3.92;;;;;;;24.01;38.32;100623.06;4884759;29;20033;-74
2022/05/15 15:02:28;;;;;;;6.53;3.10;;;;;;;24.16;38.40;100636.59;4886387;29;20053;-75
2022/05/15 15:04:54;;;;;;;6.03;3.55;;;;;;;24.08;38.09;100644.19;4868794;29;20973;-74
2022/05/15 15:07:22;;;;;;;8.35;2.47;;;;;;;23.92;37.37;100617.31;4882000;29;20483;-75
2022/05/15 15:09:49;;;;;;;6.75;3.72;;;;;;;24.02;36.75;100650.72;4886289;29;20686;-75
2022/05/15 15:12:15;;;;;;;5.63;2.50;;;;;;;23.84;37.58;100609.69;4880957;29;20052;-74
2022/05/15 15:14:41;;;;;;;4.30;2.35;;;;;;;23.89;37.35;100604.06;4884231;29;20161;-75
2022/05/15 15:17:06;;;;;;;7.57;2.67;;;;;;;23.68;37.59;100606.03;4885320;29;20139;-73
2022/05/15 15:19:32;;;;;;;5.90;2.55;;;;;;;23.66;37.02;100606.09;4880574;29;20069;-74
2022/05/15 15:22:01;;;;;;;5.40;3.65;;;;;;;23.94;37.04;100596.66;4881526;29;20044;-75
2022/05/15 15:24:27;;;;;;;12.15;2.95;;;;;;;23.96;37.60;100597.44;4875248;29;20518;-74
2022/05/15 15:26:53;;;;;;;6.63;3.17;;;;;;;23.88;37.96;100603.22;4899161;29;20580;-74
2022/05/15 15:29:21;;;;;;;6.05;4.15;;;;;;;24.02;38.04;100613.19;4883431;29;20063;-74
2022/05/15 15:31:47;;;;;;;12.40;4.22;;;;;;;23.81;38.75;100609.81;4886059;29;20140;-74
2022/05/15 15:34:14;;;;;;;8.88;4.90;;;;;;;23.87;38.78;100600.59;4880040;29;20091;-75
2022/05/15 15:36:43;;;;;;;7.35;4.03;;;;;;;23.81;38.79;100599.09;4880251;29;20060;-75
2022/05/15 15:39:09;;;;;;;8.60;4.72;;;;;;;23.84;38.98;100606.13;4895347;29;20059;-74
2022/05/15 15:41:37;;;;;;;10.55;5.50;;;;;;;24.11;39.33;100642.19;4880383;29;21792;-77
2022/05/15 16:08:35;;;;;;;15.63;7.05;;;;;;;23.28;40.11;100595.50;4883886;28;20116;-76
2022/05/15 16:11:01;;;;;;;12.32;5.28;;;;;;;23.47;40.76;100622.25;4885462;29;20047;-76
2022/05/15 16:13:28;;;;;;;9.18;3.25;;;;;;;23.35;40.68;100602.28;4883196;29;20064;-76
2022/05/15 16:15:55;;;;;;;7.05;4.47;;;;;;;23.67;40.15;100637.31;4883692;29;20054;-76
2022/05/15 17:20:44;;;;;;;3.90;2.97;;;;;;;22.32;44.31;100667.81;4884498;29;20071;-89
2022/05/15 17:23:26;;;;;;;10.40;3.78;;;;;;;22.10;44.33;100652.72;4878180;29;20630;-77
2022/05/15 17:25:52;;;;;;;6.57;3.15;;;;;;;22.49;43.65;100699.16;4884067;29;20056;-76
2022/05/15 17:34:12;;;;;;;6.15;3.83;;;;;;;22.33;44.92;100698.94;4883847;29;20493;-76
2022/05/15 17:36:23;;;;;;;7.63;4.70;;;;;;;21.85;45.82;100665.41;4885394;29;20048;-76
2022/05/15 17:38:51;;;;;;;22.55;4.35;;;;;;;22.02;46.06;100699.41;4885987;29;20053;-75
2022/05/15 19:58:15;;;;;;;10.07;5.88;;;;;;;20.23;54.37;100734.75;5971875;23;20368;31
2022/05/15 20:00:52;;;;;;;11.75;6.07;;;;;;;20.23;54.78;100756.06;4844455;29;20057;-75
2022/05/15 20:03:19;;;;;;;7.70;5.20;;;;;;;20.33;54.13;100765.47;4853654;29;20060;-75
2022/05/15 20:11:32;;;;;;;11.73;5.50;;;;;;;20.18;54.82;100744.66;4846637;29;20052;-76
2022/05/15 20:14:05;;;;;;;13.18;6.75;;;;;;;20.07;55.21;100747.72;4852731;29;20437;-76
2022/05/15 20:16:32;;;;;;;17.70;5.80;;;;;;;20.41;55.05;100783.84;4844763;29;20722;-75
2022/05/15 20:18:58;;;;;;;11.50;6.28;;;;;;;20.33;55.20;100788.59;4841184;29;20110;-76
2022/05/15 20:21:24;;;;;;;11.02;4.47;;;;;;;19.93;55.81;100740.19;4851571;29;20406;-76
2022/05/15 20:23:50;;;;;;;13.02;5.68;;;;;;;20.17;55.93;100782.91;4846432;29;20041;-74
2022/05/15 20:26:17;;;;;;;9.95;5.07;;;;;;;20.25;55.71;100780.84;4841730;29;20132;-77
2022/05/15 20:28:43;;;;;;;13.43;5.75;;;;;;;20.20;56.32;100790.78;4843323;29;20133;-77
2022/05/15 20:31:37;;;;;;;9.07;5.25;;;;;;;20.22;56.23;100795.16;4845134;29;20061;-76
2022/05/15 20:34:07;;;;;;;;;;;;;;;19.91;55.72;100744.69;4841834;29;20064;-76
2022/05/15 20:36:35;;;;;;;9.43;6.25;;;;;;;19.92;55.87;100753.53;4843956;29;19961;-76
2022/05/15 20:39:01;;;;;;;11.27;6.63;;;;;;;20.23;56.09;100788.03;4853010;29;22431;-76
2022/05/15 20:41:27;;;;;;;10.57;5.30;;;;;;;19.90;56.31;100752.72;4847769;29;20057;-76
2022/05/15 20:43:53;;;;;;;9.70;5.90;;;;;;;20.17;56.45;100796.22;4846548;29;20045;-76
2022/05/15 20:46:19;;;;;;;10.20;4.65;;;;;;;20.10;56.63;100789.38;4852514;29;20055;-76
2022/05/15 20:48:45;;;;;;;15.57;6.63;;;;;;;19.78;56.45;100749.56;4843008;29;20057;-76
2022/05/15 20:51:11;;;;;;;8.93;6.20;;;;;;;19.98;57.18;100793.31;4851830;29;20045;-77
2022/05/15 20:53:38;;;;;;;9.25;6.47;;;;;;;19.76;57.26;100746.09;4861053;29;20062;-75
2022/05/15 20:56:05;;;;;;;7.97;5.45;;;;;;;19.78;57.31;100762.88;4848580;29;20061;-77
2022/05/15 20:58:33;;;;;;;10.27;5.70;;;;;;;19.69;57.11;100751.63;4846054;29;22959;-76
2022/05/15 21:01:01;;;;;;;9.23;5.57;;;;;;;19.64;56.36;100756.22;4862491;29;20064;-75
2022/05/15 21:03:27;;;;;;;12.93;5.95;;;;;;;19.76;56.55;100764.72;4861311;29;20044;-75
2022/05/15 21:05:52;;;;;;;11.63;6.38;;;;;;;19.83;57.63;100765.41;4860839;29;20038;-76
2022/05/15 21:08:19;;;;;;;18.00;6.63;;;;;;;19.92;58.34;100791.69;4844602;29;20553;-77
2022/05/15 21:10:45;;;;;;;11.15;5.38;;;;;;;19.78;59.07;100783.28;4867263;29;20053;-77
2022/05/15 21:13:11;;;;;;;11.52;6.10;;;;;;;19.63;58.52;100758.00;4848199;29;20049;-75
2022/05/15 21:15:38;;;;;;;15.77;5.88;;;;;;;19.75;57.94;100800.25;4846396;29;20060;-75
2022/05/15 21:18:04;;;;;;;8.38;5.32;;;;;;;19.71;57.38;100763.09;4848382;29;20037;-75
2022/05/15 21:20:31;;;;;;;11.13;5.38;;;;;;;19.64;59.02;100778.38;4840881;29;20097;-75
2022/05/15 21:22:58;;;;;;;16.90;5.97;;;;;;;19.92;58.71;100810.34;4848036;29;20045;-74
2022/05/15 21:25:24;;;;;;;8.90;5.47;;;;;;;19.49;59.21;100755.78;4875483;29;20046;-75
2022/05/15 21:27:50;;;;;;;18.38;6.80;;;;;;;19.59;60.23;100791.81;4837745;29;20046;-75
2022/05/15 21:30:15;;;;;;;9.85;6.10;;;;;;;19.76;60.97;100804.66;4849161;29;20053;-75
2022/05/15 21:32:42;;;;;;;9.32;5.38;;;;;;;19.49;60.17;100776.22;4842980;29;20136;-75
2022/05/15 21:35:09;;;;;;;8.57;4.28;;;;;;;19.57;59.01;100777.72;4840798;29;20085;-81
2022/05/15 21:37:42;;;;;;;10.15;5.13;;;;;;;19.86;58.50;100804.38;4861277;29;20060;-74
2022/05/15 21:43:29;;;;;;;14.57;6.38;;;;;;;19.43;59.75;100771.94;4843353;29;20066;-74
2022/05/15 21:45:43;;;;;;;8.63;4.93;;;;;;;19.68;60.18;100808.44;4832925;29;20204;-73
2022/05/15 21:48:08;;;;;;;9.25;5.30;;;;;;;19.49;59.42;100768.22;4847409;29;20045;-74
2022/05/15 21:50:34;;;;;;;9.05;5.03;;;;;;;19.86;58.83;100802.56;4847695;29;20590;-74
2022/05/15 21:53:01;;;;;;;12.02;4.90;;;;;;;20.01;58.34;100811.84;4836949;29;20132;-74
2022/05/15 21:55:27;;;;;;;10.10;4.43;;;;;;;19.80;58.85;100811.63;4863829;29;20061;-74
2022/05/15 21:57:53;;;;;;;12.13;5.25;;;;;;;19.53;59.19;100775.19;4847537;29;20098;-73
2022/05/15 22:00:31;;;;;;;9.93;5.68;;;;;;;19.78;59.51;100828.56;4870942;29;20140;-72
2022/05/15 22:02:58;;;;;;;9.77;5.78;;;;;;;19.38;59.98;100779.19;4863077;29;20140;-74
2022/05/15 22:05:25;;;;;;;12.77;6.70;;;;;;;19.37;59.79;100788.97;4867677;29;20060;-73
2022/05/15 22:07:55;;;;;;;17.52;6.43;;;;;;;19.60;60.40;100830.84;4846270;29;20125;-73
